createdAt,value
2022-09-27T00:01:03.891Z,23.63
2022-09-27T00:03:32.980Z,17.87
2022-09-27T00:06:07.563Z,20.92
2022-09-27T00:08:37.355Z,15.32
2022-09-27T00:11:10.109Z,21.37
2022-09-27T00:13:38.402Z,16.58
2022-09-27T00:16:06.861Z,14.75
2022-09-27T00:18:35.784Z,19.02
2022-09-27T00:21:09.673Z,21.45
2022-09-27T00:23:38.971Z,20.15
2022-09-27T00:26:12.954Z,14.90
2022-09-27T00:28:41.301Z,16.38
2022-09-27T00:31:21.345Z,14.43
2022-09-27T00:33:50.766Z,16.42
2022-09-27T00:36:20.517Z,17.63
2022-09-27T00:38:49.563Z,19.70
2022-09-27T00:41:23.145Z,15.75
2022-09-27T00:43:55.131Z,19.02
2022-09-27T00:46:31.119Z,18.13
2022-09-27T00:49:08.309Z,26.42
2022-09-27T00:51:38.998Z,17.45
2022-09-27T00:54:09.173Z,19.33
2022-09-27T00:56:39.101Z,24.80
2022-09-27T00:59:14.361Z,22.30
2022-09-27T01:01:43.213Z,26.77
2022-09-27T01:04:14.667Z,21.33
2022-09-27T01:06:42.885Z,17.25
2022-09-27T01:09:13.178Z,22.08
2022-09-27T01:11:47.486Z,15.10
2022-09-27T01:14:38.808Z,17.25
2022-09-27T01:17:25.647Z,20.63
2022-09-27T01:20:36.458Z,17.15
2022-09-27T01:23:48.274Z,17.30
2022-09-27T01:26:33.196Z,14.18
2022-09-27T01:29:11.464Z,18.35
2022-09-27T01:31:50.718Z,16.33
2022-09-27T01:34:27.860Z,16.10
2022-09-27T01:37:03.052Z,13.65
2022-09-27T01:39:41.284Z,12.82
2022-09-27T01:42:34.843Z,15.40
2022-09-27T01:45:10.662Z,17.60
2022-09-27T01:47:55.080Z,17.88
2022-09-27T01:50:47.109Z,13.00
2022-09-27T01:53:22.074Z,14.57
2022-09-27T01:56:13.059Z,11.25
2022-09-27T01:58:57.409Z,8.52
2022-09-27T02:01:30.395Z,14.02
2022-09-27T02:04:02.696Z,8.85
2022-09-27T02:06:59.423Z,12.80
2022-09-27T02:09:37.943Z,10.32
2022-09-27T02:12:28.452Z,18.33
2022-09-27T02:15:01.990Z,12.07
2022-09-27T02:17:43.019Z,11.82
2022-09-27T02:20:19.847Z,9.38
2022-09-27T02:23:04.587Z,10.13
2022-09-27T02:25:41.816Z,7.33
2022-09-27T02:28:21.810Z,10.20
2022-09-27T02:30:50.609Z,6.72
2022-09-27T02:33:31.696Z,10.70
2022-09-27T02:36:03.480Z,9.45
2022-09-27T02:41:01.809Z,10.03
2022-09-27T02:43:33.246Z,8.88
2022-09-27T02:46:34.929Z,11.05
2022-09-27T02:49:21.421Z,13.80
2022-09-27T02:52:19.167Z,9.52
2022-09-27T02:54:59.955Z,8.93
2022-09-27T02:58:04.336Z,10.75
2022-09-27T03:01:03.286Z,9.65
2022-09-27T03:03:57.201Z,10.45
2022-09-27T03:06:26.347Z,8.48
2022-09-27T03:08:56.875Z,12.40
2022-09-27T03:11:25.740Z,7.13
2022-09-27T03:14:08.267Z,13.05
2022-09-27T03:16:41.962Z,16.45
2022-09-27T03:19:32.906Z,10.77
2022-09-27T03:22:21.687Z,11.23
2022-09-27T03:24:51.502Z,14.88
2022-09-27T03:27:19.823Z,15.95
2022-09-27T03:29:47.999Z,10.63
2022-09-27T03:32:17.627Z,7.43
2022-09-27T03:35:09.211Z,8.73
2022-09-27T03:37:37.915Z,8.48
2022-09-27T03:40:09.365Z,5.35
2022-09-27T03:42:37.762Z,5.97
2022-09-27T03:45:07.647Z,4.43
2022-09-27T03:47:35.978Z,7.13
2022-09-27T03:50:04.368Z,8.65
2022-09-27T03:52:32.583Z,7.43
2022-09-27T03:55:02.398Z,9.40
2022-09-27T04:00:01.715Z,11.13
2022-09-27T04:02:42.168Z,11.48
2022-09-27T04:05:26.106Z,11.57
2022-09-27T04:08:06.264Z,10.90
2022-09-27T04:10:36.797Z,11.63
2022-09-27T04:13:07.710Z,13.95
2022-09-27T04:15:42.312Z,12.73
2022-09-27T04:18:25.827Z,10.05
2022-09-27T04:21:09.700Z,9.70
2022-09-27T04:23:43.246Z,13.48
2022-09-27T04:26:15.455Z,7.78
2022-09-27T04:28:54.686Z,19.48
2022-09-27T04:31:23.261Z,11.60
2022-09-27T04:34:09.934Z,11.85
2022-09-27T04:36:38.058Z,10.85
2022-09-27T04:39:12.101Z,10.35
2022-09-27T04:41:45.488Z,10.38
2022-09-27T04:44:15.847Z,15.05
2022-09-27T04:46:48.089Z,12.75
2022-09-27T04:49:17.785Z,7.20
2022-09-27T04:51:46.905Z,7.60
2022-09-27T04:54:16.132Z,8.48
2022-09-27T04:56:56.383Z,8.90
2022-09-27T04:59:26.054Z,9.95
2022-09-27T05:01:54.303Z,8.05
2022-09-27T05:04:43.025Z,15.65
2022-09-27T05:07:12.438Z,12.73
2022-09-27T05:09:46.843Z,14.70
2022-09-27T05:12:15.092Z,8.13
2022-09-27T05:14:56.614Z,13.95
2022-09-27T05:17:45.548Z,15.95
2022-09-27T05:20:20.042Z,12.13
2022-09-27T05:23:04.694Z,14.35
2022-09-27T05:25:34.139Z,17.57
2022-09-27T05:28:02.905Z,11.00
2022-09-27T05:30:33.138Z,13.32
2022-09-27T05:33:13.439Z,13.07
2022-09-27T05:35:54.407Z,12.52
2022-09-27T05:38:26.257Z,10.73
2022-09-27T05:40:58.022Z,13.40
2022-09-27T05:43:28.325Z,13.25
2022-09-27T05:46:00.777Z,15.60
2022-09-27T05:51:06.248Z,11.52
2022-09-27T05:53:37.830Z,9.68
2022-09-27T05:56:09.290Z,11.05
2022-09-27T05:58:58.557Z,10.18
2022-09-27T06:01:31.158Z,9.40
2022-09-27T06:04:17.935Z,10.40
2022-09-27T06:07:15.047Z,13.98
2022-09-27T06:09:44.288Z,10.45
2022-09-27T06:12:13.085Z,12.32
2022-09-27T06:14:41.470Z,8.55
2022-09-27T06:17:16.366Z,12.30
2022-09-27T06:19:47.688Z,8.05
2022-09-27T06:22:16.737Z,18.33
2022-09-27T06:24:56.469Z,10.30
2022-09-27T06:27:27.776Z,10.07
2022-09-27T06:30:00.954Z,10.13
2022-09-27T06:32:42.969Z,12.55
2022-09-27T06:35:31.134Z,8.27
2022-09-27T06:37:59.601Z,7.15
2022-09-27T06:40:28.208Z,9.95
2022-09-27T06:43:19.770Z,10.15
2022-09-27T06:46:07.172Z,9.43
2022-09-27T06:48:56.579Z,10.52
2022-09-27T06:53:53.198Z,10.82
2022-09-27T06:56:21.936Z,9.40
2022-09-27T06:59:24.434Z,10.73
2022-09-27T07:02:11.761Z,12.35
2022-09-27T07:05:03.576Z,6.78
2022-09-27T07:07:44.093Z,8.55
2022-09-27T07:10:13.229Z,9.93
2022-09-27T07:12:41.581Z,16.23
2022-09-27T07:15:12.622Z,11.53
2022-09-27T07:17:41.058Z,6.57
2022-09-27T07:20:11.731Z,9.90
2022-09-27T07:22:42.967Z,8.55
2022-09-27T07:25:12.028Z,9.15
2022-09-27T07:27:42.013Z,10.13
2022-09-27T07:30:13.185Z,7.40
2022-09-27T07:32:42.339Z,8.80
2022-09-27T07:35:15.538Z,6.60
2022-09-27T07:37:45.427Z,11.82
2022-09-27T07:40:15.167Z,12.83
2022-09-27T07:42:43.959Z,6.38
2022-09-27T07:45:13.109Z,10.93
2022-09-27T07:48:01.573Z,7.80
2022-09-27T07:50:49.680Z,9.85
2022-09-27T07:53:41.129Z,9.63
2022-09-27T07:56:27.921Z,5.38
2022-09-27T07:58:57.343Z,7.65
2022-09-27T08:01:25.893Z,8.00
2022-09-27T08:03:54.240Z,8.20
2022-09-27T08:06:25.156Z,7.10
2022-09-27T08:08:54.855Z,7.60
2022-09-27T08:11:23.133Z,7.55
2022-09-27T08:13:53.048Z,7.72
2022-09-27T08:16:25.643Z,12.73
2022-09-27T08:19:15.073Z,9.70
2022-09-27T08:22:03.913Z,6.68
2022-09-27T08:24:55.020Z,6.88
2022-09-27T08:27:41.344Z,8.65
2022-09-27T08:30:21.352Z,7.70
2022-09-27T08:32:49.599Z,6.65
2022-09-27T08:35:17.824Z,9.77
2022-09-27T08:37:55.398Z,10.02
2022-09-27T08:40:27.726Z,10.13
2022-09-27T08:43:07.215Z,11.77
2022-09-27T08:45:42.883Z,9.27
2022-09-27T08:48:12.561Z,8.20
2022-09-27T08:50:45.940Z,9.88
2022-09-27T08:53:24.898Z,7.45
2022-09-27T08:55:57.051Z,8.85
2022-09-27T08:58:31.296Z,10.77
2022-09-27T09:01:04.341Z,11.40
2022-09-27T09:03:45.069Z,11.10
2022-09-27T09:06:21.004Z,8.05
2022-09-27T09:09:05.251Z,12.15
2022-09-27T09:12:07.802Z,9.77
2022-09-27T09:15:04.714Z,12.50
2022-09-27T09:17:56.153Z,16.75
2022-09-27T09:20:53.721Z,7.13
2022-09-27T09:23:39.323Z,14.93
2022-09-27T09:26:15.456Z,11.32
2022-09-27T09:29:06.203Z,11.90
2022-09-27T09:31:43.896Z,9.85
2022-09-27T09:34:21.899Z,10.75
2022-09-27T09:36:57.736Z,8.70
2022-09-27T09:39:31.715Z,6.50
2022-09-27T09:42:12.665Z,5.60
2022-09-27T09:44:49.177Z,5.63
2022-09-27T09:47:29.576Z,7.28
2022-09-27T09:50:02.766Z,10.07
2022-09-27T09:52:41.230Z,7.80
2022-09-27T09:55:21.573Z,4.43
2022-09-27T09:58:08.187Z,6.47
2022-09-27T10:00:45.636Z,5.90
2022-09-27T10:03:13.999Z,6.22
2022-09-27T10:05:45.560Z,4.85
2022-09-27T10:08:22.083Z,3.60
2022-09-27T10:10:58.555Z,5.50
2022-09-27T10:13:37.921Z,5.22
2022-09-27T10:16:11.555Z,5.85
2022-09-27T10:18:47.624Z,5.25
2022-09-27T10:21:23.843Z,3.95
2022-09-27T10:24:16.603Z,5.00
2022-09-27T10:27:15.211Z,3.55
2022-09-27T10:29:44.939Z,4.68
2022-09-27T10:32:27.181Z,7.25
2022-09-27T10:35:35.326Z,6.93
2022-09-27T10:38:24.943Z,5.85
2022-09-27T10:41:16.704Z,5.80
2022-09-27T10:43:45.332Z,6.68
2022-09-27T10:46:29.780Z,5.13
2022-09-27T10:49:19.616Z,8.82
2022-09-27T10:51:54.118Z,6.68
2022-09-27T10:54:27.680Z,6.00
2022-09-27T10:57:04.643Z,7.05
2022-09-27T10:59:37.272Z,6.35
2022-09-27T11:02:07.928Z,7.25
2022-09-27T11:04:40.400Z,5.13
2022-09-27T11:07:20.326Z,4.90
2022-09-27T11:10:03.849Z,5.07
2022-09-27T11:12:36.711Z,3.38
2022-09-27T11:15:08.719Z,5.97
2022-09-27T11:17:53.136Z,7.40
2022-09-27T11:20:33.692Z,10.15
2022-09-27T11:23:40.338Z,7.05
2022-09-27T11:26:29.913Z,9.45
2022-09-27T11:29:12.892Z,13.70
2022-09-27T11:32:20.354Z,12.77
2022-09-27T11:35:21.728Z,13.35
2022-09-27T11:38:04.164Z,10.10
2022-09-27T11:41:03.255Z,8.43
2022-09-27T11:43:52.494Z,8.48
2022-09-27T11:46:38.685Z,8.82
2022-09-27T11:49:47.685Z,10.38
2022-09-27T11:52:46.550Z,8.43
2022-09-27T11:55:31.268Z,9.07
2022-09-27T11:58:06.224Z,7.10
2022-09-27T12:00:53.370Z,8.88
2022-09-27T12:04:18.234Z,10.52
2022-09-27T12:06:56.201Z,8.32
2022-09-27T12:09:31.699Z,6.93
2022-09-27T12:12:06.146Z,6.97
2022-09-27T12:14:38.789Z,6.47
2022-09-27T12:17:13.474Z,7.88
2022-09-27T12:19:51.648Z,5.78
2022-09-27T12:22:53.885Z,6.35
2022-09-27T12:25:21.203Z,6.20
2022-09-27T12:28:24.613Z,5.70
2022-09-27T12:31:27.439Z,5.60
2022-09-27T12:34:01.802Z,5.15
2022-09-27T12:36:38.458Z,8.32
2022-09-27T12:39:18.790Z,8.27
2022-09-27T12:42:01.912Z,9.32
2022-09-27T12:44:45.916Z,9.10
2022-09-27T12:47:53.916Z,14.52
2022-09-27T12:50:31.602Z,10.98
2022-09-27T12:53:06.586Z,8.52
2022-09-27T12:56:09.309Z,12.98
2022-09-27T12:59:07.559Z,8.23
2022-09-27T13:01:56.202Z,11.60
2022-09-27T13:04:47.764Z,8.40
2022-09-27T13:07:36.191Z,9.82
2022-09-27T13:10:34.144Z,8.27
2022-09-27T13:13:12.954Z,7.80
2022-09-27T13:15:46.425Z,9.85
2022-09-27T13:18:48.833Z,9.13
2022-09-27T13:22:01.671Z,9.93
2022-09-27T13:24:48.784Z,8.38
2022-09-27T13:27:45.066Z,9.27
2022-09-27T13:30:47.419Z,9.45
2022-09-27T13:33:50.332Z,10.13
2022-09-27T13:36:34.213Z,10.05
2022-09-27T13:39:23.138Z,8.05
2022-09-27T13:42:37.321Z,10.35
2022-09-27T13:45:28.894Z,11.63
2022-09-27T13:48:00.398Z,9.55
2022-09-27T13:50:47.628Z,12.93
2022-09-27T13:53:27.868Z,8.57
2022-09-27T13:55:59.217Z,10.45
2022-09-27T13:58:51.347Z,7.82
2022-09-27T14:01:43.848Z,8.23
2022-09-27T14:04:19.776Z,14.32
2022-09-27T14:06:52.454Z,11.25
2022-09-27T14:09:26.653Z,11.85
2022-09-27T14:12:12.359Z,12.43
2022-09-27T14:14:43.873Z,11.60
2022-09-27T14:17:12.780Z,10.80
2022-09-27T14:19:44.945Z,11.05
2022-09-27T14:22:15.723Z,10.38
2022-09-27T14:24:56.891Z,13.63
2022-09-27T14:27:39.276Z,11.07
2022-09-27T14:30:27.749Z,10.02
2022-09-27T14:33:05.350Z,9.65
2022-09-27T14:36:08.152Z,7.03
2022-09-27T14:38:38.994Z,10.95
2022-09-27T14:41:17.696Z,10.63
2022-09-27T14:43:50.563Z,8.23
2022-09-27T14:46:28.207Z,13.00
2022-09-27T14:48:57.291Z,7.32
2022-09-27T14:51:31.217Z,7.45
2022-09-27T14:54:04.314Z,11.93
2022-09-27T14:56:37.258Z,8.35
2022-09-27T14:59:17.818Z,9.65
2022-09-27T15:01:51.417Z,11.93
2022-09-27T15:04:21.770Z,8.80
2022-09-27T15:06:50.674Z,8.80
2022-09-27T15:09:19.633Z,5.18
2022-09-27T15:11:54.959Z,9.82
2022-09-27T15:14:26.016Z,8.82
2022-09-27T15:16:56.887Z,10.27
2022-09-27T15:19:29.001Z,8.75
2022-09-27T15:21:58.285Z,9.10
2022-09-27T15:24:41.027Z,8.70
2022-09-27T15:27:18.092Z,6.65
2022-09-27T15:29:52.299Z,8.57
2022-09-27T15:32:23.902Z,8.05
2022-09-27T15:34:52.660Z,8.55
2022-09-27T15:37:29.747Z,8.30
2022-09-27T15:40:10.115Z,9.68
2022-09-27T15:42:56.306Z,10.75
2022-09-27T15:45:31.344Z,10.35
2022-09-27T15:48:09.273Z,15.65
2022-09-27T15:50:41.088Z,9.65
2022-09-27T15:53:10.817Z,11.75
2022-09-27T15:55:43.411Z,10.18
2022-09-27T15:58:16.935Z,13.05
2022-09-27T16:00:57.908Z,8.68
2022-09-27T16:03:27.890Z,8.38
2022-09-27T16:05:58.044Z,6.60
2022-09-27T16:08:27.410Z,11.35
2022-09-27T16:10:57.880Z,9.02
2022-09-27T16:13:31.842Z,11.40
2022-09-27T16:16:04.202Z,13.00
2022-09-27T16:18:32.900Z,9.65
2022-09-27T16:21:01.452Z,7.20
2022-09-27T16:23:29.798Z,6.82
2022-09-27T16:25:58.119Z,6.05
2022-09-27T16:28:26.522Z,10.68
2022-09-27T16:30:54.809Z,8.80
2022-09-27T16:33:24.807Z,10.90
2022-09-27T16:35:53.018Z,9.27
2022-09-27T16:38:21.365Z,8.30
2022-09-27T16:40:49.645Z,7.72
2022-09-27T16:43:18.631Z,7.85
2022-09-27T16:45:46.937Z,9.13
2022-09-27T16:48:15.317Z,10.98
2022-09-27T16:51:02.267Z,8.93
2022-09-27T16:53:31.222Z,8.13
2022-09-27T16:56:00.670Z,12.38
2022-09-27T16:58:30.819Z,10.90
2022-09-27T17:01:00.068Z,6.53
2022-09-27T17:03:28.637Z,14.00
2022-09-27T17:06:02.624Z,9.57
2022-09-27T17:08:30.933Z,9.13
2022-09-27T17:11:00.218Z,9.73
2022-09-27T17:13:28.774Z,11.57
2022-09-27T17:15:57.118Z,9.05
2022-09-27T17:18:25.591Z,10.02
2022-09-27T17:20:53.988Z,10.27
2022-09-27T17:23:23.600Z,17.65
2022-09-27T17:25:52.191Z,10.48
2022-09-27T17:28:20.505Z,13.43
2022-09-27T17:30:48.850Z,12.23
2022-09-27T17:33:17.115Z,11.25
2022-09-27T17:35:47.857Z,7.88
2022-09-27T17:40:46.134Z,6.38
2022-09-27T17:43:15.767Z,8.05
2022-09-27T17:45:44.094Z,5.18
2022-09-27T17:48:29.721Z,6.55
2022-09-27T17:50:58.249Z,9.27
2022-09-27T17:53:26.577Z,4.97
2022-09-27T17:56:02.461Z,6.25
2022-09-27T17:58:31.077Z,6.70
2022-09-27T18:01:04.343Z,5.40
2022-09-27T18:03:32.831Z,7.15
2022-09-27T18:06:06.070Z,5.75
2022-09-27T18:08:34.452Z,6.60
2022-09-27T18:11:09.245Z,7.80
2022-09-27T18:13:40.565Z,9.65
2022-09-27T18:16:11.297Z,8.27
2022-09-27T18:21:11.597Z,10.50
2022-09-27T18:23:40.741Z,8.13
2022-09-27T18:26:11.440Z,6.25
2022-09-27T18:31:11.484Z,11.20
2022-09-27T18:36:13.178Z,4.18
2022-09-27T18:38:41.970Z,5.40
2022-09-27T18:41:14.168Z,6.32
2022-09-27T18:43:44.225Z,5.28
2022-09-27T18:46:34.933Z,6.57
2022-09-27T18:49:05.092Z,5.45
2022-09-27T18:51:36.194Z,4.80
2022-09-27T18:54:08.183Z,5.32
2022-09-27T18:56:39.542Z,6.38
2022-09-27T18:59:10.201Z,5.55
2022-09-27T19:01:40.359Z,6.53
2022-09-27T19:04:09.823Z,5.20
2022-09-27T19:06:39.417Z,4.60
2022-09-27T19:09:10.914Z,5.68
2022-09-27T19:11:40.608Z,5.55
2022-09-27T19:14:08.883Z,7.53
2022-09-27T19:16:37.245Z,6.00
2022-09-27T19:19:05.497Z,6.20
2022-09-27T19:21:33.801Z,8.13
2022-09-27T19:24:02.682Z,5.72
2022-09-27T19:26:31.061Z,6.47
2022-09-27T19:29:02.276Z,7.78
2022-09-27T19:31:34.058Z,6.97
2022-09-27T19:34:02.471Z,6.68
2022-09-27T19:36:30.903Z,7.18
2022-09-27T19:39:00.031Z,7.53
2022-09-27T19:41:28.634Z,7.93
2022-09-27T19:44:00.209Z,7.03
2022-09-27T19:46:28.584Z,6.82
2022-09-27T19:48:56.988Z,5.82
2022-09-27T19:51:28.152Z,7.70
2022-09-27T19:53:56.895Z,4.15
2022-09-27T19:56:26.129Z,6.18
2022-09-27T19:58:54.575Z,7.45
2022-09-27T20:01:26.116Z,7.38
2022-09-27T20:03:56.811Z,7.85
2022-09-27T20:06:25.382Z,5.80
2022-09-27T20:08:53.766Z,7.78
2022-09-27T20:11:23.927Z,9.15
2022-09-27T20:13:54.004Z,9.48
2022-09-27T20:16:25.390Z,8.95
2022-09-27T20:18:56.145Z,4.97
2022-09-27T20:21:27.345Z,7.88
2022-09-27T20:23:57.954Z,4.78
2022-09-27T20:26:29.352Z,6.75
2022-09-27T20:28:59.637Z,7.00
2022-09-27T20:31:32.865Z,5.57
2022-09-27T20:34:01.490Z,7.15
2022-09-27T20:36:32.292Z,6.78
2022-09-27T20:39:03.543Z,11.40
2022-09-27T20:41:34.415Z,8.48
2022-09-27T20:46:35.043Z,7.80
2022-09-27T20:49:06.980Z,5.13
2022-09-27T20:51:38.798Z,8.05
2022-09-27T20:54:09.359Z,8.88
2022-09-27T20:56:41.673Z,6.00
2022-09-27T20:59:17.616Z,5.88
2022-09-27T21:01:49.363Z,6.10
2022-09-27T21:04:19.695Z,7.13
2022-09-27T21:06:48.245Z,7.43
2022-09-27T21:09:18.915Z,8.18
2022-09-27T21:11:48.389Z,5.68
2022-09-27T21:14:16.808Z,8.18
2022-09-27T21:16:45.212Z,9.63
2022-09-27T21:19:15.436Z,6.03
2022-09-27T21:21:43.922Z,7.40
2022-09-27T21:24:12.811Z,6.07
2022-09-27T21:26:41.084Z,7.55
2022-09-27T21:29:11.629Z,7.70
2022-09-27T21:31:40.082Z,5.22
2022-09-27T21:34:08.871Z,9.30
2022-09-27T21:36:40.298Z,8.30
2022-09-27T21:39:10.520Z,6.63
2022-09-27T21:41:39.838Z,6.72
2022-09-27T21:44:08.768Z,6.35
2022-09-27T21:46:41.590Z,5.00
2022-09-27T21:49:11.035Z,6.20
2022-09-27T21:51:42.240Z,6.63
2022-09-27T21:54:15.281Z,5.50
2022-09-27T21:56:44.908Z,6.15
2022-09-27T21:59:16.047Z,8.05
2022-09-27T22:01:46.028Z,9.77
2022-09-27T22:04:14.586Z,4.75
2022-09-27T22:06:44.489Z,5.53
2022-09-27T22:09:17.103Z,4.82
2022-09-27T22:11:47.352Z,8.85
2022-09-27T22:14:16.647Z,6.28
2022-09-27T22:16:44.921Z,13.10
2022-09-27T22:19:15.312Z,8.70
2022-09-27T22:21:45.464Z,7.57
2022-09-27T22:24:15.575Z,7.05
2022-09-27T22:26:49.057Z,4.85
2022-09-27T22:29:18.053Z,9.90
2022-09-27T22:31:46.696Z,6.13
2022-09-27T22:34:18.794Z,6.15
2022-09-27T22:36:48.628Z,7.10
2022-09-27T22:39:16.994Z,8.25
2022-09-27T22:41:45.412Z,7.13
2022-09-27T22:44:13.770Z,5.05
2022-09-27T22:46:42.497Z,6.20
2022-09-27T22:49:10.863Z,6.53
2022-09-27T22:51:39.105Z,5.53
2022-09-27T22:54:08.954Z,4.82
2022-09-27T22:56:37.245Z,7.18
2022-09-27T22:59:05.579Z,7.65
2022-09-27T23:01:36.719Z,7.10
2022-09-27T23:04:05.012Z,5.13
2022-09-27T23:06:33.429Z,4.45
2022-09-27T23:09:02.690Z,5.80
2022-09-27T23:11:33.126Z,5.63
2022-09-27T23:14:01.416Z,4.28
2022-09-27T23:16:29.746Z,5.70
2022-09-27T23:18:58.478Z,4.85
2022-09-27T23:21:28.652Z,7.88
2022-09-27T23:23:59.627Z,8.25
2022-09-27T23:26:31.018Z,8.07
2022-09-27T23:29:00.951Z,5.32
2022-09-27T23:31:31.387Z,5.65
2022-09-27T23:34:04.133Z,4.22
2022-09-27T23:36:32.476Z,13.13
2022-09-27T23:39:01.705Z,5.35
2022-09-27T23:41:31.373Z,6.35
2022-09-27T23:43:59.547Z,6.57
2022-09-27T23:46:28.947Z,6.68
2022-09-27T23:48:58.872Z,4.28
2022-09-27T23:51:27.357Z,6.47
2022-09-27T23:53:57.087Z,5.50
2022-09-27T23:56:25.527Z,4.90
2022-09-27T23:58:55.122Z,7.15
